createdAt,value
2023-05-15T00:01:29.197Z,99418.66
2023-05-15T00:03:55.781Z,99414.28
2023-05-15T00:06:22.728Z,99419.41
2023-05-15T00:08:49.315Z,99415.63
2023-05-15T00:11:15.971Z,99422.25
2023-05-15T00:13:42.681Z,99421.69
2023-05-15T00:16:09.447Z,99423.31
2023-05-15T00:18:36.547Z,99426.13
2023-05-15T00:21:03.467Z,99429.81
2023-05-15T00:23:30.119Z,99424.72
2023-05-15T00:25:56.853Z,99427.19
2023-05-15T00:28:23.454Z,99425.66
2023-05-15T00:30:50.106Z,99441.56
2023-05-15T00:33:16.866Z,99438.75
2023-05-15T00:35:43.689Z,99444.22
2023-05-15T00:38:10.532Z,99438.88
2023-05-15T00:40:37.968Z,99445.81
2023-05-15T00:43:05.872Z,99437.53
2023-05-15T00:45:32.756Z,99426.56
2023-05-15T00:48:01.376Z,99421.06
2023-05-15T00:50:28.572Z,99421.91
2023-05-15T00:52:55.578Z,99416.28
2023-05-15T00:55:22.266Z,99419.38
2023-05-15T00:57:49.173Z,99425.44
2023-05-15T01:00:16.540Z,99424.75
2023-05-15T01:02:43.323Z,99416.41
2023-05-15T01:05:10.323Z,99407.59
2023-05-15T01:07:43.825Z,99404.69
2023-05-15T01:10:14.184Z,99393.88
2023-05-15T01:12:41.587Z,99391.09
2023-05-15T01:15:08.522Z,99389.50
2023-05-15T01:17:35.718Z,99383.25
2023-05-15T01:20:06.875Z,99387.88
2023-05-15T01:22:59.711Z,99401.09
2023-05-15T01:26:03.497Z,99397.75
2023-05-15T01:28:40.183Z,99389.13
2023-05-15T01:31:14.955Z,99386.56
2023-05-15T01:33:46.260Z,99395.81
2023-05-15T01:36:19.345Z,99396.00
2023-05-15T01:38:50.183Z,99389.44
2023-05-15T01:41:22.766Z,99384.78
2023-05-15T01:44:07.541Z,99381.72
2023-05-15T01:46:38.980Z,99384.59
2023-05-15T01:49:11.251Z,99372.78
2023-05-15T01:51:39.444Z,99360.94
2023-05-15T01:54:09.087Z,99355.84
2023-05-15T01:56:36.757Z,99348.81
2023-05-15T01:59:05.040Z,99358.66
2023-05-15T02:01:33.193Z,99354.25
2023-05-15T02:04:01.832Z,99361.00
2023-05-15T02:06:29.880Z,99359.03
2023-05-15T02:08:57.957Z,99359.88
2023-05-15T02:11:24.764Z,99353.69
2023-05-15T02:13:51.957Z,99361.13
2023-05-15T02:16:18.873Z,99354.16
2023-05-15T02:18:45.625Z,99351.84
2023-05-15T02:21:12.674Z,99360.94
2023-05-15T02:23:39.287Z,99370.94
2023-05-15T02:26:19.627Z,99383.34
2023-05-15T02:28:55.018Z,99396.22
2023-05-15T02:31:52.903Z,99392.78
2023-05-15T02:34:45.415Z,99399.88
2023-05-15T02:37:17.194Z,99385.69
2023-05-15T02:39:45.887Z,99382.66
2023-05-15T02:42:13.539Z,99395.31
2023-05-15T02:44:41.098Z,99408.56
2023-05-15T02:47:07.995Z,99405.06
2023-05-15T02:49:34.992Z,99402.34
2023-05-15T02:52:01.683Z,99395.59
2023-05-15T02:54:28.342Z,99399.22
2023-05-15T02:56:54.955Z,99404.38
2023-05-15T02:59:21.785Z,99403.81
2023-05-15T03:01:48.744Z,99392.69
2023-05-15T03:04:15.835Z,99387.31
2023-05-15T03:06:42.476Z,99387.03
2023-05-15T03:09:09.198Z,99390.75
2023-05-15T03:11:36.177Z,99384.63
2023-05-15T03:14:02.937Z,99386.44
2023-05-15T03:16:29.611Z,99374.88
2023-05-15T03:18:56.327Z,99364.81
2023-05-15T03:21:23.012Z,99367.22
2023-05-15T03:23:49.590Z,99351.03
2023-05-15T03:26:16.243Z,99358.50
2023-05-15T03:28:42.856Z,99353.81
2023-05-15T03:31:10.018Z,99351.13
2023-05-15T03:33:38.053Z,99351.69
2023-05-15T03:36:05.065Z,99333.94
2023-05-15T03:38:31.686Z,99332.91
2023-05-15T03:40:58.331Z,99326.72
2023-05-15T03:43:24.996Z,99320.31
2023-05-15T03:45:51.712Z,99318.72
2023-05-15T03:48:18.409Z,99312.16
2023-05-15T03:50:45.596Z,99307.44
2023-05-15T03:53:12.489Z,99309.44
2023-05-15T03:55:39.212Z,99311.34
2023-05-15T03:58:05.841Z,99302.19
2023-05-15T04:00:32.446Z,99289.78
2023-05-15T04:02:59.276Z,99305.34
2023-05-15T04:05:26.530Z,99309.38
2023-05-15T04:07:53.536Z,99302.41
2023-05-15T04:10:20.219Z,99304.34
2023-05-15T04:12:46.877Z,99313.28
2023-05-15T04:15:19.627Z,99306.31
2023-05-15T04:17:47.660Z,99306.00
2023-05-15T04:20:18.485Z,99304.94
2023-05-15T04:22:46.037Z,99301.16
2023-05-15T04:25:13.408Z,99289.44
2023-05-15T04:27:40.759Z,99293.69
2023-05-15T04:30:08.640Z,99294.03
2023-05-15T04:32:35.777Z,99303.97
2023-05-15T04:35:03.220Z,99309.63
2023-05-15T04:37:29.837Z,99302.97
2023-05-15T04:39:56.809Z,99309.72
2023-05-15T04:42:23.583Z,99318.19
2023-05-15T04:44:50.262Z,99325.09
2023-05-15T04:47:16.906Z,99320.72
2023-05-15T04:49:43.629Z,99322.78
2023-05-15T04:52:10.260Z,99312.06
2023-05-15T04:54:36.903Z,99313.81
2023-05-15T04:57:03.752Z,99317.59
2023-05-15T04:59:30.639Z,99339.09
2023-05-15T05:01:57.385Z,99338.66
2023-05-15T05:04:24.205Z,99344.94
2023-05-15T05:06:50.906Z,99367.41
2023-05-15T05:09:19.406Z,99370.66
2023-05-15T05:11:47.089Z,99374.63
2023-05-15T05:14:15.249Z,99368.22
2023-05-15T05:16:45.392Z,99367.34
2023-05-15T05:19:12.282Z,99382.66
2023-05-15T05:21:38.996Z,99378.19
2023-05-15T05:24:05.748Z,99387.22
2023-05-15T05:26:32.393Z,99386.34
2023-05-15T05:28:59.125Z,99379.19
2023-05-15T05:31:25.950Z,99371.00
2023-05-15T05:33:52.692Z,99369.50
2023-05-15T05:36:19.417Z,99365.72
2023-05-15T05:38:46.113Z,99386.25
2023-05-15T05:41:14.807Z,99387.22
2023-05-15T05:43:41.648Z,99392.44
2023-05-15T05:46:08.340Z,99388.09
2023-05-15T05:48:35.049Z,99393.34
2023-05-15T05:51:01.637Z,99395.91
2023-05-15T05:53:28.429Z,99380.84
2023-05-15T05:55:55.277Z,99386.91
2023-05-15T05:58:25.948Z,99386.06
2023-05-15T06:00:54.319Z,99386.47
2023-05-15T06:03:21.204Z,99403.41
2023-05-15T06:05:47.918Z,99404.06
2023-05-15T06:08:14.528Z,99387.03
2023-05-15T06:10:41.127Z,99389.53
2023-05-15T06:13:07.739Z,99400.16
2023-05-15T06:15:34.385Z,99406.56
2023-05-15T06:18:01.266Z,99407.69
2023-05-15T06:20:28.061Z,99414.59
2023-05-15T06:22:54.739Z,99423.47
2023-05-15T06:25:21.608Z,99435.91
2023-05-15T06:27:48.293Z,99431.28
2023-05-15T06:30:15.149Z,99434.81
2023-05-15T06:32:42.223Z,99428.88
2023-05-15T06:35:10.140Z,99417.25
2023-05-15T06:37:37.341Z,99417.25
2023-05-15T06:40:10.600Z,99408.22
2023-05-15T06:42:37.277Z,99401.75
2023-05-15T06:45:04.466Z,99394.78
2023-05-15T06:47:31.183Z,99390.47
2023-05-15T06:49:57.864Z,99389.47
2023-05-15T06:52:24.505Z,99390.25
2023-05-15T06:54:51.416Z,99392.34
2023-05-15T06:57:19.312Z,99394.44
2023-05-15T06:59:46.149Z,99390.84
2023-05-15T07:02:12.909Z,99386.13
2023-05-15T07:04:39.711Z,99392.53
2023-05-15T07:07:06.529Z,99394.88
2023-05-15T07:09:33.225Z,99406.38
2023-05-15T07:11:59.815Z,99406.75
2023-05-15T07:14:26.461Z,99404.03
2023-05-15T07:16:53.229Z,99410.06
2023-05-15T07:19:19.917Z,99414.69
2023-05-15T07:21:46.906Z,99412.53
2023-05-15T07:24:13.555Z,99413.88
2023-05-15T07:26:54.329Z,99417.03
2023-05-15T07:29:25.146Z,99417.03
2023-05-15T07:31:51.867Z,99415.50
2023-05-15T07:34:18.534Z,99420.50
2023-05-15T07:36:45.137Z,99416.81
2023-05-15T07:39:11.873Z,99405.13
2023-05-15T07:41:38.632Z,99398.00
2023-05-15T07:44:05.277Z,99395.97
2023-05-15T07:46:32.893Z,99388.88
2023-05-15T07:48:59.587Z,99389.44
2023-05-15T07:51:26.163Z,99392.66
2023-05-15T07:53:52.764Z,99380.50
2023-05-15T07:56:22.325Z,99388.78
2023-05-15T07:58:49.023Z,99401.75
2023-05-15T08:01:15.722Z,99406.06
2023-05-15T08:03:42.462Z,99418.34
2023-05-15T08:06:09.181Z,99430.78
2023-05-15T08:08:35.828Z,99424.94
2023-05-15T08:11:02.610Z,99424.91
2023-05-15T08:13:29.416Z,99431.56
2023-05-15T08:15:56.198Z,99435.69
2023-05-15T08:18:22.843Z,99419.28
2023-05-15T08:20:49.735Z,99431.13
2023-05-15T08:23:16.422Z,99428.41
2023-05-15T08:25:43.045Z,99434.00
2023-05-15T08:28:10.378Z,99434.16
2023-05-15T08:30:37.005Z,99437.41
2023-05-15T08:33:03.766Z,99430.69
2023-05-15T08:35:30.547Z,99430.31
2023-05-15T08:37:58.291Z,99429.84
2023-05-15T08:40:38.323Z,99423.91
2023-05-15T08:43:12.964Z,99419.56
2023-05-15T08:45:40.425Z,99416.56
2023-05-15T08:48:18.278Z,99417.72
2023-05-15T08:50:45.233Z,99419.59
2023-05-15T08:53:14.868Z,99415.97
2023-05-15T08:55:42.005Z,99417.84
2023-05-15T08:58:09.443Z,99419.66
2023-05-15T09:00:36.095Z,99419.31
2023-05-15T09:03:02.804Z,99427.06
2023-05-15T09:05:30.283Z,99432.47
2023-05-15T09:07:58.584Z,99435.84
2023-05-15T09:10:25.191Z,99441.94
2023-05-15T09:12:53.057Z,99448.72
2023-05-15T09:15:20.213Z,99447.31
2023-05-15T09:17:46.859Z,99444.50
2023-05-15T09:20:25.522Z,99448.88
2023-05-15T09:22:52.135Z,99450.91
2023-05-15T09:25:38.059Z,99447.75
2023-05-15T09:28:10.670Z,99461.38
2023-05-15T09:30:43.270Z,99454.13
2023-05-15T09:33:10.105Z,99463.13
2023-05-15T09:35:38.593Z,99461.59
2023-05-15T09:38:11.039Z,99467.97
2023-05-15T09:40:39.441Z,99472.94
2023-05-15T09:43:06.328Z,99475.06
2023-05-15T09:45:32.904Z,99480.94
2023-05-15T09:48:00.489Z,99468.16
2023-05-15T09:50:35.296Z,99469.91
2023-05-15T09:53:02.338Z,99467.50
2023-05-15T09:55:34.282Z,99465.59
2023-05-15T09:58:12.238Z,99473.81
2023-05-15T10:00:48.113Z,99470.13
2023-05-15T10:03:18.378Z,99469.88
2023-05-15T10:05:45.196Z,99477.34
2023-05-15T10:08:11.979Z,99476.66
2023-05-15T10:10:41.083Z,99473.28
2023-05-15T10:13:08.583Z,99467.78
2023-05-15T10:15:37.802Z,99468.38
2023-05-15T10:18:05.673Z,99468.81
2023-05-15T10:20:33.607Z,99464.72
2023-05-15T10:23:01.897Z,99463.31
2023-05-15T10:26:03.189Z,99467.69
2023-05-15T10:28:30.261Z,99465.38
2023-05-15T10:31:00.757Z,99469.47
2023-05-15T10:33:28.130Z,99463.69
2023-05-15T10:35:56.769Z,99466.34
2023-05-15T10:38:24.113Z,99478.97
2023-05-15T10:40:57.608Z,99475.63
2023-05-15T10:43:30.708Z,99476.03
2023-05-15T10:45:58.480Z,99481.88
2023-05-15T10:48:26.250Z,99486.09
2023-05-15T10:50:52.889Z,99478.38
2023-05-15T10:53:20.695Z,99477.72
2023-05-15T10:55:49.519Z,99479.91
2023-05-15T10:58:16.337Z,99476.50
2023-05-15T11:00:45.211Z,99483.34
2023-05-15T11:03:15.620Z,99481.88
2023-05-15T11:06:20.226Z,99487.28
2023-05-15T11:08:46.847Z,99478.13
2023-05-15T11:11:51.697Z,99484.84
2023-05-15T11:14:23.980Z,99492.69
2023-05-15T11:16:53.907Z,99482.09
2023-05-15T11:19:29.655Z,99486.19
2023-05-15T11:22:01.284Z,99482.00
2023-05-15T11:24:29.772Z,99485.13
2023-05-15T11:27:04.413Z,99475.56
2023-05-15T11:29:31.344Z,99471.91
2023-05-15T11:31:57.958Z,99473.66
2023-05-15T11:34:34.587Z,99473.03
2023-05-15T11:37:01.729Z,99470.28
2023-05-15T11:39:28.458Z,99474.81
2023-05-15T11:41:55.682Z,99461.81
2023-05-15T11:44:25.105Z,99459.41
2023-05-15T11:46:51.825Z,99466.25
2023-05-15T11:49:19.855Z,99456.00
2023-05-15T11:51:48.533Z,99458.28
2023-05-15T11:54:15.296Z,99456.84
2023-05-15T11:56:43.774Z,99451.59
2023-05-15T11:59:13.565Z,99446.50
2023-05-15T12:01:44.329Z,99455.56
2023-05-15T12:04:18.861Z,99458.50
2023-05-15T12:06:46.784Z,99452.63
2023-05-15T12:09:17.783Z,99460.59
2023-05-15T12:11:56.704Z,99468.44
2023-05-15T12:14:31.321Z,99463.66
2023-05-15T12:17:01.626Z,99467.91
2023-05-15T12:19:28.708Z,99471.31
2023-05-15T12:21:55.339Z,99464.94
2023-05-15T12:24:22.387Z,99463.84
2023-05-15T12:26:49.162Z,99464.03
2023-05-15T12:29:16.164Z,99456.31
2023-05-15T12:31:43.442Z,99462.25
2023-05-15T12:34:10.548Z,99465.66
2023-05-15T12:36:37.186Z,99464.97
2023-05-15T12:39:07.444Z,99466.81
2023-05-15T12:41:37.270Z,99471.38
2023-05-15T12:44:04.942Z,99467.13
2023-05-15T12:46:32.317Z,99461.22
2023-05-15T12:48:59.653Z,99463.34
2023-05-15T12:51:27.280Z,99469.63
2023-05-15T12:53:54.606Z,99469.41
2023-05-15T12:56:21.464Z,99455.97
2023-05-15T12:58:48.220Z,99445.78
2023-05-15T13:01:15.701Z,99438.31
2023-05-15T13:03:43.458Z,99445.25
2023-05-15T13:06:10.811Z,99443.00
2023-05-15T13:08:42.141Z,99434.59
2023-05-15T13:11:13.656Z,99425.81
2023-05-15T13:13:50.361Z,99434.44
2023-05-15T13:16:28.462Z,99439.13
2023-05-15T13:18:56.290Z,99440.16
2023-05-15T13:21:23.019Z,99447.78
2023-05-15T13:23:51.469Z,99443.63
2023-05-15T13:26:18.175Z,99440.44
2023-05-15T13:28:44.785Z,99445.38
2023-05-15T13:31:11.543Z,99441.25
2023-05-15T13:33:38.180Z,99438.78
2023-05-15T13:36:05.115Z,99439.78
2023-05-15T13:38:34.313Z,99450.69
2023-05-15T13:41:01.136Z,99447.19
2023-05-15T13:43:27.714Z,99440.75
2023-05-15T13:45:54.442Z,99435.31
2023-05-15T13:48:21.382Z,99436.22
2023-05-15T13:50:48.212Z,99429.13
2023-05-15T13:53:15.015Z,99432.53
2023-05-15T13:55:41.715Z,99433.56
2023-05-15T13:58:08.281Z,99434.13
2023-05-15T14:00:34.906Z,99432.53
2023-05-15T14:03:01.587Z,99426.06
2023-05-15T14:05:28.317Z,99445.47
2023-05-15T14:07:54.899Z,99442.69
2023-05-15T14:10:21.464Z,99442.81
2023-05-15T14:12:48.046Z,99446.34
2023-05-15T14:15:14.797Z,99442.47
2023-05-15T14:17:41.701Z,99445.00
2023-05-15T14:20:10.363Z,99448.50
2023-05-15T14:22:37.692Z,99448.47
2023-05-15T14:25:05.667Z,99449.56
2023-05-15T14:27:32.492Z,99447.41
2023-05-15T14:29:59.056Z,99453.94
2023-05-15T14:32:25.659Z,99452.38
2023-05-15T14:34:52.271Z,99457.75
2023-05-15T14:37:19.500Z,99455.66
2023-05-15T14:39:46.095Z,99451.50
2023-05-15T14:42:12.687Z,99454.13
2023-05-15T14:44:39.291Z,99455.94
2023-05-15T14:47:12.863Z,99465.25
2023-05-15T14:49:40.457Z,99461.03
2023-05-15T14:52:09.215Z,99469.19
2023-05-15T14:54:37.096Z,99470.50
2023-05-15T14:57:03.878Z,99460.03
2023-05-15T14:59:30.826Z,99463.31
2023-05-15T15:01:57.456Z,99466.38
2023-05-15T15:04:24.185Z,99465.97
2023-05-15T15:06:50.846Z,99461.78
2023-05-15T15:09:19.491Z,99466.53
2023-05-15T15:11:47.473Z,99464.72
2023-05-15T15:14:14.089Z,99467.28
2023-05-15T15:16:40.845Z,99469.19
2023-05-15T15:19:07.679Z,99477.81
2023-05-15T15:21:34.464Z,99483.50
2023-05-15T15:24:01.127Z,99490.97
2023-05-15T15:26:27.739Z,99498.22
2023-05-15T15:28:54.475Z,99488.25
2023-05-15T15:31:21.298Z,99498.16
2023-05-15T15:33:48.587Z,99485.88
2023-05-15T15:36:15.270Z,99489.06
2023-05-15T15:38:42.052Z,99490.56
2023-05-15T15:41:08.716Z,99499.19
2023-05-15T15:43:35.316Z,99491.13
2023-05-15T15:46:01.950Z,99492.56
2023-05-15T15:48:28.869Z,99497.63
2023-05-15T15:50:55.708Z,99495.75
2023-05-15T15:53:22.347Z,99506.38
2023-05-15T15:55:48.947Z,99511.00
2023-05-15T15:58:15.556Z,99505.84
2023-05-15T16:00:42.316Z,99508.66
2023-05-15T16:03:09.027Z,99502.91
2023-05-15T16:05:35.663Z,99504.59
2023-05-15T16:08:02.383Z,99508.88
2023-05-15T16:10:30.577Z,99500.53
2023-05-15T16:12:57.427Z,99497.78
2023-05-15T16:15:24.407Z,99503.22
2023-05-15T16:17:52.852Z,99498.44
2023-05-15T16:20:20.162Z,99498.16
2023-05-15T16:22:46.818Z,99498.75
2023-05-15T16:25:13.526Z,99498.72
2023-05-15T16:27:40.099Z,99503.25
2023-05-15T16:30:07.421Z,99504.41
2023-05-15T16:32:34.305Z,99503.72
2023-05-15T16:35:01.072Z,99506.94
2023-05-15T16:37:27.735Z,99515.91
2023-05-15T16:39:54.382Z,99513.72
2023-05-15T16:42:20.997Z,99518.13
2023-05-15T16:44:47.622Z,99516.50
2023-05-15T16:47:14.224Z,99526.56
2023-05-15T16:49:43.318Z,99523.03
2023-05-15T16:52:10.943Z,99519.06
2023-05-15T16:54:37.568Z,99517.47
2023-05-15T16:57:04.362Z,99521.63
2023-05-15T16:59:31.160Z,99513.56
2023-05-15T17:01:58.090Z,99521.06
2023-05-15T17:04:24.785Z,99515.66
2023-05-15T17:06:51.399Z,99524.69
2023-05-15T17:09:17.989Z,99522.31
2023-05-15T17:11:44.629Z,99530.38
2023-05-15T17:14:11.278Z,99529.03
2023-05-15T17:16:37.871Z,99535.56
2023-05-15T17:19:04.562Z,99524.41
2023-05-15T17:21:31.219Z,99538.75
2023-05-15T17:23:57.801Z,99540.50
2023-05-15T17:26:24.388Z,99544.56
2023-05-15T17:28:51.219Z,99559.25
2023-05-15T17:31:17.848Z,99555.97
2023-05-15T17:33:44.908Z,99558.88
2023-05-15T17:36:12.861Z,99569.31
2023-05-15T17:38:39.443Z,99570.00
2023-05-15T17:41:07.142Z,99572.94
2023-05-15T17:43:33.783Z,99567.34
2023-05-15T17:46:00.540Z,99568.22
2023-05-15T17:48:27.210Z,99564.53
2023-05-15T17:50:53.803Z,99566.31
2023-05-15T17:53:24.148Z,99565.59
2023-05-15T17:55:50.925Z,99568.63
2023-05-15T17:58:17.849Z,99576.97
2023-05-15T18:00:44.466Z,99573.66
2023-05-15T18:03:11.231Z,99579.16
2023-05-15T18:05:38.263Z,99570.16
2023-05-15T18:08:05.146Z,99565.97
2023-05-15T18:10:31.796Z,99565.63
2023-05-15T18:12:58.479Z,99562.13
2023-05-15T18:15:25.527Z,99571.44
2023-05-15T18:17:52.757Z,99562.59
2023-05-15T18:20:19.442Z,99566.69
2023-05-15T18:22:46.153Z,99558.84
2023-05-15T18:25:12.774Z,99562.13
2023-05-15T18:27:39.401Z,99574.16
2023-05-15T18:30:07.016Z,99579.31
2023-05-15T18:32:33.920Z,99586.50
2023-05-15T18:35:00.558Z,99583.06
2023-05-15T18:37:27.223Z,99588.53
2023-05-15T18:39:54.129Z,99593.25
2023-05-15T18:42:20.911Z,99593.41
2023-05-15T18:44:47.568Z,99600.09
2023-05-15T18:47:14.351Z,99612.06
2023-05-15T18:49:41.128Z,99606.06
2023-05-15T18:52:07.707Z,99610.38
2023-05-15T18:54:34.364Z,99615.84
2023-05-15T18:57:01.010Z,99618.25
2023-05-15T18:59:29.135Z,99617.81
2023-05-15T19:01:56.909Z,99614.28
2023-05-15T19:04:23.592Z,99619.22
2023-05-15T19:06:50.229Z,99623.50
2023-05-15T19:09:17.406Z,99625.47
2023-05-15T19:11:50.136Z,99630.44
2023-05-15T19:14:16.744Z,99628.19
2023-05-15T19:16:43.681Z,99631.16
2023-05-15T19:19:10.618Z,99625.91
2023-05-15T19:21:38.229Z,99626.25
2023-05-15T19:24:06.034Z,99637.34
2023-05-15T19:26:32.944Z,99633.50
2023-05-15T19:29:01.670Z,99635.06
2023-05-15T19:31:31.831Z,99634.63
2023-05-15T19:33:59.864Z,99634.41
2023-05-15T19:36:27.153Z,99633.41
2023-05-15T19:38:55.928Z,99628.78
2023-05-15T19:41:22.741Z,99615.50
2023-05-15T19:43:49.677Z,99623.34
2023-05-15T19:46:17.360Z,99617.06
2023-05-15T19:48:44.099Z,99621.09
2023-05-15T19:51:10.798Z,99625.16
2023-05-15T19:53:37.436Z,99626.16
2023-05-15T19:56:04.669Z,99620.03
2023-05-15T19:58:32.201Z,99630.75
2023-05-15T20:00:58.869Z,99620.34
2023-05-15T20:03:25.877Z,99629.19
2023-05-15T20:05:52.826Z,99621.56
2023-05-15T20:08:19.442Z,99621.44
2023-05-15T20:10:51.074Z,99620.72
2023-05-15T20:13:17.730Z,99625.94
2023-05-15T20:15:44.566Z,99629.13
2023-05-15T20:18:11.222Z,99643.38
2023-05-15T20:20:37.854Z,99641.97
2023-05-15T20:23:04.532Z,99652.56
2023-05-15T20:25:31.182Z,99649.75
2023-05-15T20:27:57.817Z,99654.75
2023-05-15T20:30:24.875Z,99648.00
2023-05-15T20:32:51.883Z,99651.72
2023-05-15T20:35:18.644Z,99653.38
2023-05-15T20:37:45.913Z,99656.63
2023-05-15T20:40:12.574Z,99662.53
2023-05-15T20:42:39.800Z,99665.94
2023-05-15T20:45:06.978Z,99663.31
2023-05-15T20:47:33.647Z,99660.97
2023-05-15T20:50:00.361Z,99660.84
2023-05-15T20:52:26.975Z,99653.97
2023-05-15T20:54:53.663Z,99661.38
2023-05-15T20:57:20.283Z,99652.34
2023-05-15T20:59:46.870Z,99660.28
2023-05-15T21:02:13.473Z,99664.72
2023-05-15T21:04:40.346Z,99662.28
2023-05-15T21:07:07.229Z,99659.91
2023-05-15T21:09:33.947Z,99659.91
2023-05-15T21:12:00.579Z,99658.50
2023-05-15T21:14:27.343Z,99663.72
2023-05-15T21:16:54.098Z,99669.28
2023-05-15T21:19:21.208Z,99672.66
2023-05-15T21:21:47.854Z,99671.06
2023-05-15T21:24:14.498Z,99667.25
2023-05-15T21:26:41.041Z,99669.81
2023-05-15T21:29:08.292Z,99668.81
2023-05-15T21:31:35.021Z,99677.47
2023-05-15T21:34:01.779Z,99678.09
2023-05-15T21:36:28.370Z,99666.03
2023-05-15T21:38:55.031Z,99670.00
2023-05-15T21:41:21.639Z,99666.03
2023-05-15T21:43:48.282Z,99665.41
2023-05-15T21:46:15.176Z,99671.78
2023-05-15T21:48:41.977Z,99669.59
2023-05-15T21:51:08.644Z,99677.03
2023-05-15T21:53:35.269Z,99678.56
2023-05-15T21:56:02.936Z,99679.28
2023-05-15T21:58:29.882Z,99680.44
2023-05-15T22:00:56.585Z,99687.44
2023-05-15T22:03:23.422Z,99695.25
2023-05-15T22:05:50.715Z,99694.84
2023-05-15T22:08:17.451Z,99697.56
2023-05-15T22:10:44.531Z,99702.41
2023-05-15T22:13:11.463Z,99708.63
2023-05-15T22:15:38.124Z,99710.81
2023-05-15T22:18:05.224Z,99715.09
2023-05-15T22:20:34.510Z,99730.97
2023-05-15T22:23:01.239Z,99726.66
2023-05-15T22:25:27.857Z,99729.44
2023-05-15T22:27:54.499Z,99718.38
2023-05-15T22:30:21.248Z,99728.88
2023-05-15T22:32:48.010Z,99725.94
2023-05-15T22:35:14.690Z,99723.03
2023-05-15T22:37:41.389Z,99722.41
2023-05-15T22:40:11.158Z,99722.09
2023-05-15T22:42:38.008Z,99717.91
2023-05-15T22:45:05.106Z,99709.03
2023-05-15T22:47:32.009Z,99704.84
2023-05-15T22:49:58.744Z,99707.84
2023-05-15T22:52:25.367Z,99703.41
2023-05-15T22:55:16.126Z,99698.34
2023-05-15T22:57:43.737Z,99700.22
2023-05-15T23:00:11.152Z,99695.91
2023-05-15T23:02:38.194Z,99688.06
2023-05-15T23:05:05.275Z,99694.59
2023-05-15T23:07:31.964Z,99690.72
2023-05-15T23:09:58.721Z,99694.00
2023-05-15T23:12:25.344Z,99697.34
2023-05-15T23:14:51.979Z,99687.94
2023-05-15T23:17:18.619Z,99680.84
2023-05-15T23:19:45.234Z,99682.09
2023-05-15T23:22:11.931Z,99679.44
2023-05-15T23:24:38.549Z,99682.16
2023-05-15T23:27:05.502Z,99684.66
2023-05-15T23:29:32.619Z,99680.03
2023-05-15T23:31:59.431Z,99682.38
2023-05-15T23:34:26.148Z,99676.06
2023-05-15T23:36:52.791Z,99678.41
2023-05-15T23:39:19.595Z,99674.66
2023-05-15T23:41:46.199Z,99666.59
2023-05-15T23:44:12.786Z,99665.25
2023-05-15T23:46:39.445Z,99669.81
2023-05-15T23:49:06.502Z,99666.72
2023-05-15T23:51:33.153Z,99659.34
2023-05-15T23:53:59.899Z,99670.88
2023-05-15T23:56:29.565Z,99669.00
2023-05-15T23:58:56.163Z,99659.25
